Time;durP1;ratioP1;P1;durP2;ratioP2;P2;SDS_P1;SDS_P2;PMS_P1;PMS_P2;Temp;Humidity;BMP_temperature;BMP_pressure;BME280_temperature;BME280_humidity;BME280_pressure;Samples;Min_cycle;Max_cycle;Signal;HPM_P1;HPM_P2
2021/06/09 00:01:05;;;;;;;;;;;15.20;99.90;;;;;;6186267;23;19920;-77
2021/06/09 00:03:36;;;;;;;;;;;15.20;99.90;;;;;;6188164;23;19951;-78
2021/06/09 00:06:03;;;;;;;;;;;15.20;99.90;;;;;;6188032;23;19926;-78
2021/06/09 00:08:35;;;;;;;;;;;15.20;99.90;;;;;;6164437;23;19951;-77
2021/06/09 00:11:02;;;;;;;;;;;15.20;99.90;;;;;;6162815;23;19920;-77
2021/06/09 00:13:34;;;;;;;;;;;15.20;99.90;;;;;;6164291;23;20353;-78
2021/06/09 00:16:04;;;;;;;;;;;15.20;99.90;;;;;;6163705;23;19944;-77
2021/06/09 00:18:30;;;;;;;;;;;15.20;99.90;;;;;;6187762;23;20003;-77
2021/06/09 00:20:57;;;;;;;;;;;15.10;99.90;;;;;;6163177;23;19959;-77
2021/06/09 00:23:29;;;;;;;;;;;15.10;99.90;;;;;;6163234;23;19954;-77
2021/06/09 00:26:00;;;;;;;;;;;15.00;99.90;;;;;;6163189;23;19994;-77
2021/06/09 00:28:27;;;;;;;;;;;15.10;99.90;;;;;;6162976;23;19974;-78
2021/06/09 00:30:54;;;;;;;;;;;15.00;99.90;;;;;;6162788;23;19923;-78
2021/06/09 00:33:20;;;;;;;;;;;14.90;99.90;;;;;;6187728;23;19942;-77
2021/06/09 00:35:57;;;;;;;;;;;14.90;99.90;;;;;;6164290;23;20007;-78
2021/06/09 00:38:25;;;;;;;;;;;14.80;99.90;;;;;;6163095;23;19959;-77
2021/06/09 00:40:52;;;;;;;;;;;14.80;99.90;;;;;;6187527;23;19920;-78
2021/06/09 00:43:20;;;;;;;;;;;14.80;99.90;;;;;;6187430;23;19920;-78
2021/06/09 00:45:56;;;;;;;;;;;14.80;99.90;;;;;;6187821;23;19962;-78
2021/06/09 00:48:27;;;;;;;;;;;14.80;99.90;;;;;;6187907;23;20002;-78
2021/06/09 00:50:54;;;;;;;;;;;14.80;99.90;;;;;;6187165;23;20246;-77
2021/06/09 00:54:09;;;;;;;;;;;14.80;99.90;;;;;;6187334;23;19920;-77
2021/06/09 00:56:17;;;;;;;;;;;14.80;99.90;;;;;;6169007;23;20273;-77
2021/06/09 00:58:45;;;;;;;;;;;14.80;99.90;;;;;;6163112;23;19923;-77
2021/06/09 01:01:18;;;;;;;;;;;14.80;99.90;;;;;;6188221;23;20003;-78
2021/06/09 01:03:45;;;;;;;;;;;14.70;99.90;;;;;;6187663;23;19920;-77
2021/06/09 01:06:12;;;;;;;;;;;14.70;99.90;;;;;;6162474;23;20010;-78
2021/06/09 01:08:39;;;;;;;;;;;14.70;99.90;;;;;;6186786;23;19920;-77
2021/06/09 02:13:35;;;;;;;;;;;14.00;99.90;;;;;;6211809;23;19915;-77
2021/06/09 02:16:02;;;;;;;;;;;14.00;99.90;;;;;;6188129;23;20388;-77
2021/06/09 02:18:29;;;;;;;;;;;14.00;99.90;;;;;;6163656;23;19944;-77
2021/06/09 02:21:03;;;;;;;;;;;14.00;99.90;;;;;;6164814;23;20413;-77
2021/06/09 02:23:35;;;;;;;;;;;13.90;99.90;;;;;;6188822;23;19920;-77
2021/06/09 02:26:02;;;;;;;;;;;13.90;99.90;;;;;;6164326;23;19920;-77
2021/06/09 02:28:31;;;;;;;;;;;13.90;99.90;;;;;;6184536;23;19944;-78
2021/06/09 02:30:58;;;;;;;;;;;13.90;99.90;;;;;;6184979;23;19920;-78
2021/06/09 02:33:26;;;;;;;;;;;13.80;99.90;;;;;;6209135;23;19928;-77
2021/06/09 02:35:54;;;;;;;;;;;13.80;99.90;;;;;;6174196;23;20337;-77
2021/06/09 02:38:26;;;;;;;;;;;13.80;99.90;;;;;;6188245;23;20006;-77
2021/06/09 02:40:54;;;;;;;;;;;13.80;99.90;;;;;;6163125;23;20337;-77
2021/06/09 02:43:22;;;;;;;;;;;13.70;99.90;;;;;;6187535;23;19950;-77
2021/06/09 02:45:51;;;;;;;;;;;13.70;99.90;;;;;;6163366;23;20041;-77
2021/06/09 02:48:19;;;;;;;;;;;13.60;99.90;;;;;;6163909;23;19970;-77
2021/06/09 02:50:46;;;;;;;;;;;13.50;99.90;;;;;;6188585;23;19934;-77
2021/06/09 02:53:30;;;;;;;;;;;13.50;99.90;;;;;;6164592;23;19920;-77
2021/06/09 02:55:57;;;;;;;;;;;13.50;99.90;;;;;;6163763;23;19954;-78
2021/06/09 02:58:24;;;;;;;;;;;13.50;99.90;;;;;;6163778;23;19931;-77
2021/06/09 03:01:11;;;;;;;;;;;13.50;99.90;;;;;;6188491;23;20230;-77
2021/06/09 03:03:44;;;;;;;;;;;13.40;99.90;;;;;;6139280;23;19924;-77
2021/06/09 03:06:18;;;;;;;;;;;13.40;99.90;;;;;;6163621;23;19942;-77
2021/06/09 03:09:00;;;;;;;;;;;13.40;99.90;;;;;;6188424;23;20428;-77
2021/06/09 03:11:36;;;;;;;;;;;13.30;99.90;;;;;;6187702;23;19919;-77
2021/06/09 03:16:57;;;;;;;;;;;13.30;99.90;;;;;;6188353;23;19963;-77
2021/06/09 03:19:26;;;;;;;;;;;13.30;99.90;;;;;;6188419;23;20231;-77
2021/06/09 03:22:12;;;;;;;;;;;13.20;99.90;;;;;;6164315;23;20248;-77
2021/06/09 03:24:45;;;;;;;;;;;13.20;99.90;;;;;;6188224;23;20003;-77
2021/06/09 03:27:28;;;;;;;;;;;13.20;99.90;;;;;;6163428;23;19998;-77
2021/06/09 03:30:03;;;;;;;;;;;13.10;99.90;;;;;;6187706;23;19920;-77
2021/06/09 03:32:35;;;;;;;;;;;13.20;99.90;;;;;;6164457;23;19924;-77
2021/06/09 03:35:05;;;;;;;;;;;13.10;99.90;;;;;;6163786;23;19951;-77
2021/06/09 03:37:34;;;;;;;;;;;13.20;99.90;;;;;;6163509;23;19920;-77
2021/06/09 03:40:04;;;;;;;;;;;13.10;99.90;;;;;;6188398;23;19924;-77
2021/06/09 03:42:37;;;;;;;;;;;13.20;99.90;;;;;;6164168;23;20002;-77
2021/06/09 03:45:04;;;;;;;;;;;13.10;99.90;;;;;;6163481;23;19927;-77
2021/06/09 03:47:32;;;;;;;;;;;13.10;99.90;;;;;;6163316;23;19926;-77
2021/06/09 03:50:05;;;;;;;;;;;13.10;99.90;;;;;;6187140;23;20139;-77
2021/06/09 03:52:32;;;;;;;;;;;13.20;99.90;;;;;;6186817;23;19924;-77
2021/06/09 03:55:00;;;;;;;;;;;13.30;99.90;;;;;;6162609;23;19994;-77
2021/06/09 03:57:30;;;;;;;;;;;13.30;99.90;;;;;;6187443;23;20341;-77
2021/06/09 03:59:58;;;;;;;;;;;13.30;99.90;;;;;;6187238;23;20301;-77
2021/06/09 04:02:31;;;;;;;;;;;13.30;99.90;;;;;;6188939;23;19920;-77
2021/06/09 04:04:58;;;;;;;;;;;13.30;99.90;;;;;;6186722;23;20253;-78
2021/06/09 04:07:30;;;;;;;;;;;13.30;99.90;;;;;;6163971;23;19954;-77
2021/06/09 04:09:58;;;;;;;;;;;13.30;99.90;;;;;;6186560;23;19920;-77
2021/06/09 04:12:25;;;;;;;;;;;13.30;99.90;;;;;;6185394;23;19923;-77
2021/06/09 04:14:54;;;;;;;;;;;13.30;99.90;;;;;;6186802;23;19959;-77
2021/06/09 04:17:22;;;;;;;;;;;13.40;99.90;;;;;;6162003;23;20234;-77
2021/06/09 04:19:50;;;;;;;;;;;13.40;99.90;;;;;;6186785;23;19920;-77
2021/06/09 04:22:17;;;;;;;;;;;13.50;99.90;;;;;;6161288;23;19963;-77
2021/06/09 04:24:45;;;;;;;;;;;13.50;99.90;;;;;;6186815;23;19935;-77
2021/06/09 04:27:30;;;;;;;;;;;13.50;99.90;;;;;;6162121;23;20006;-77
2021/06/09 04:29:57;;;;;;;;;;;13.50;99.90;;;;;;6186534;23;19924;-78
2021/06/09 04:32:24;;;;;;;;;;;13.60;99.90;;;;;;6161415;23;20014;-77
2021/06/09 04:34:57;;;;;;;;;;;13.60;99.90;;;;;;6187299;23;19927;-77
2021/06/09 04:37:30;;;;;;;;;;;13.60;99.90;;;;;;6163767;23;19943;-77
2021/06/09 04:39:56;;;;;;;;;;;13.60;99.90;;;;;;6162753;23;19970;-77
2021/06/09 04:42:23;;;;;;;;;;;13.70;99.90;;;;;;6186554;23;19924;-78
2021/06/09 04:44:50;;;;;;;;;;;13.70;99.90;;;;;;6162144;23;19971;-78
2021/06/09 04:47:16;;;;;;;;;;;13.70;99.90;;;;;;6187031;23;19962;-77
2021/06/09 04:49:44;;;;;;;;;;;13.80;99.90;;;;;;6186697;23;19970;-77
2021/06/09 04:52:11;;;;;;;;;;;13.80;99.90;;;;;;6186810;23;19967;-77
2021/06/09 04:54:38;;;;;;;;;;;13.90;99.90;;;;;;6187353;23;19927;-77
2021/06/09 04:57:10;;;;;;;;;;;13.90;99.90;;;;;;6163735;23;19926;-78
2021/06/09 04:59:37;;;;;;;;;;;13.90;99.90;;;;;;6162806;23;20419;-77
2021/06/09 05:02:09;;;;;;;;;;;14.00;99.90;;;;;;6188223;23;20002;-77
2021/06/09 05:04:41;;;;;;;;;;;14.00;99.90;;;;;;6163458;23;19924;-77
2021/06/09 05:07:12;;;;;;;;;;;14.00;99.90;;;;;;6165352;23;20329;-77
2021/06/09 05:09:40;;;;;;;;;;;14.10;99.90;;;;;;6189454;23;19927;-77
2021/06/09 05:12:07;;;;;;;;;;;14.10;99.90;;;;;;6163460;23;19920;-78
2021/06/09 05:14:42;;;;;;;;;;;14.10;99.90;;;;;;6164668;23;20376;-78
2021/06/09 05:17:17;;;;;;;;;;;14.10;99.90;;;;;;6189479;23;19995;-78
2021/06/09 05:19:51;;;;;;;;;;;14.20;99.90;;;;;;6190413;23;19926;-77
2021/06/09 05:22:26;;;;;;;;;;;14.20;99.90;;;;;;6191501;23;19927;-77
2021/06/09 05:24:54;;;;;;;;;;;14.20;99.90;;;;;;6185218;23;20028;-77
2021/06/09 05:27:22;;;;;;;;;;;14.20;99.90;;;;;;6185187;23;20537;-77
2021/06/09 05:29:50;;;;;;;;;;;14.20;99.90;;;;;;6163989;23;19967;-78
2021/06/09 05:32:17;;;;;;;;;;;14.20;99.90;;;;;;6159978;23;19951;-77
2021/06/09 05:34:45;;;;;;;;;;;14.20;99.90;;;;;;6188973;23;19998;-77
2021/06/09 05:37:14;;;;;;;;;;;14.20;99.90;;;;;;6162532;23;19924;-77
2021/06/09 05:39:41;;;;;;;;;;;14.20;99.90;;;;;;6164469;23;19959;-77
2021/06/09 05:42:08;;;;;;;;;;;14.30;99.90;;;;;;6163624;23;19944;-77
2021/06/09 05:44:44;;;;;;;;;;;14.30;99.90;;;;;;6202183;23;19926;-78
2021/06/09 05:47:16;;;;;;;;;;;14.40;99.90;;;;;;6186643;23;20297;-78
2021/06/09 05:49:48;;;;;;;;;;;14.40;99.90;;;;;;6210615;23;19927;-77
2021/06/09 05:52:15;;;;;;;;;;;14.40;99.90;;;;;;6177782;23;19923;-77
2021/06/09 05:54:42;;;;;;;;;;;14.50;99.90;;;;;;6188622;23;19951;-77
2021/06/09 05:57:10;;;;;;;;;;;14.50;99.90;;;;;;6189072;23;19927;-77
2021/06/09 05:59:39;;;;;;;;;;;14.50;99.90;;;;;;6163800;23;19955;-77
2021/06/09 06:02:11;;;;;;;;;;;14.60;99.90;;;;;;6187831;23;19920;-77
2021/06/09 06:04:38;;;;;;;;;;;14.60;99.90;;;;;;6188648;23;19970;-77
2021/06/09 06:07:06;;;;;;;;;;;14.60;99.90;;;;;;6161746;23;19959;-77
2021/06/09 06:09:38;;;;;;;;;;;14.70;99.90;;;;;;6188470;23;19994;-77
2021/06/09 06:12:06;;;;;;;;;;;14.70;99.90;;;;;;6161615;23;19931;-77
2021/06/09 06:14:33;;;;;;;;;;;14.80;99.90;;;;;;6188778;23;19920;-77
2021/06/09 06:17:01;;;;;;;;;;;14.90;99.90;;;;;;6164196;23;20388;-78
2021/06/09 06:19:37;;;;;;;;;;;15.00;99.90;;;;;;6208353;22;20131;-75
2021/06/09 06:22:11;;;;;;;;;;;15.10;99.90;;;;;;6165669;23;19920;-75
2021/06/09 06:24:44;;;;;;;;;;;15.20;99.90;;;;;;6136819;23;19967;-77
2021/06/09 06:27:15;;;;;;;;;;;15.30;99.90;;;;;;6160060;23;20379;-76
2021/06/09 06:29:44;;;;;;;;;;;15.40;99.90;;;;;;6135820;23;19955;-76
2021/06/09 06:32:15;;;;;;;;;;;15.60;99.90;;;;;;6160877;23;20297;-75
2021/06/09 06:34:44;;;;;;;;;;;15.70;99.90;;;;;;6136485;23;19974;-76
2021/06/09 06:37:12;;;;;;;;;;;15.90;99.90;;;;;;6160052;23;20309;-75
2021/06/09 06:39:40;;;;;;;;;;;16.00;99.90;;;;;;6159873;23;19947;-75
2021/06/09 06:42:12;;;;;;;;;;;16.10;99.90;;;;;;6137039;23;20023;-77
2021/06/09 06:44:43;;;;;;;;;;;16.20;99.90;;;;;;6161027;23;20006;-79
2021/06/09 06:47:11;;;;;;;;;;;16.30;99.90;;;;;;6159589;23;19920;-76
2021/06/09 06:49:38;;;;;;;;;;;16.40;99.90;;;;;;6160812;23;19920;-75
2021/06/09 06:52:05;;;;;;;;;;;16.40;99.90;;;;;;6135900;23;19943;-76
2021/06/09 06:54:37;;;;;;;;;;;16.50;99.90;;;;;;6137299;23;19920;-75
2021/06/09 06:57:18;;;;;;;;;;;16.60;99.90;;;;;;6137055;23;20230;-79
2021/06/09 07:00:24;;;;;;;;;;;16.60;99.90;;;;;;6163642;23;19920;-80
2021/06/09 07:02:57;;;;;;;;;;;16.70;99.90;;;;;;6158861;23;19971;-79
2021/06/09 07:05:34;;;;;;;;;;;16.80;99.90;;;;;;6136044;23;20399;-78
2021/06/09 07:08:03;;;;;;;;;;;16.90;99.90;;;;;;6134834;23;20419;-79
2021/06/09 07:10:33;;;;;;;;;;;17.00;99.90;;;;;;6134622;23;19928;-78
2021/06/09 07:13:05;;;;;;;;;;;17.10;99.90;;;;;;6133501;23;20000;-79
2021/06/09 07:15:34;;;;;;;;;;;17.20;99.90;;;;;;6135725;23;19928;-79
2021/06/09 07:18:04;;;;;;;;;;;17.30;99.90;;;;;;6135425;23;19951;-79
2021/06/09 07:20:36;;;;;;;;;;;17.40;99.90;;;;;;6136136;23;19967;-78
2021/06/09 07:23:04;;;;;;;;;;;17.50;99.90;;;;;;6133845;23;19922;-79
2021/06/09 07:25:31;;;;;;;;;;;17.60;99.90;;;;;;6135853;23;19920;-78
2021/06/09 07:28:02;;;;;;;;;;;17.60;99.90;;;;;;6134926;23;19924;-79
2021/06/09 07:30:31;;;;;;;;;;;17.70;99.90;;;;;;6134602;23;19924;-79
2021/06/09 07:33:06;;;;;;;;;;;17.80;99.90;;;;;;6134930;23;19920;-79
2021/06/09 07:35:38;;;;;;;;;;;17.90;99.90;;;;;;6135502;23;19955;-78
2021/06/09 07:38:08;;;;;;;;;;;18.00;99.90;;;;;;6159758;23;19928;-79
2021/06/09 07:40:43;;;;;;;;;;;18.10;99.90;;;;;;6148468;23;19940;-79
2021/06/09 07:43:12;;;;;;;;;;;18.10;99.90;;;;;;6150757;23;19920;-79
2021/06/09 07:45:40;;;;;;;;;;;18.20;99.90;;;;;;6149099;23;19920;-79
2021/06/09 07:48:09;;;;;;;;;;;18.20;99.90;;;;;;6145827;23;19921;-79
2021/06/09 07:50:47;;;;;;;;;;;18.30;99.90;;;;;;6134851;23;19943;-79
2021/06/09 07:53:15;;;;;;;;;;;18.30;99.90;;;;;;6134764;23;19927;-79
2021/06/09 07:55:43;;;;;;;;;;;18.40;99.90;;;;;;6135257;23;19924;-78
2021/06/09 07:58:11;;;;;;;;;;;18.50;99.90;;;;;;6159015;23;19943;-78
2021/06/09 08:00:39;;;;;;;;;;;18.50;99.90;;;;;;6134948;23;19920;-78
2021/06/09 08:03:07;;;;;;;;;;;18.60;99.90;;;;;;6134677;23;19959;-78
2021/06/09 08:05:37;;;;;;;;;;;18.70;99.90;;;;;;6159930;23;19920;-79
2021/06/09 08:08:05;;;;;;;;;;;18.80;99.90;;;;;;6134758;23;20234;-79
2021/06/09 08:10:33;;;;;;;;;;;18.90;99.90;;;;;;6136359;23;19952;-79
2021/06/09 08:13:01;;;;;;;;;;;19.00;99.90;;;;;;6136889;23;19920;-79
2021/06/09 08:15:29;;;;;;;;;;;19.10;99.90;;;;;;6161145;23;20003;-79
2021/06/09 08:17:56;;;;;;;;;;;19.20;99.90;;;;;;6160833;23;19920;-79
2021/06/09 08:20:27;;;;;;;;;;;19.30;99.90;;;;;;6187348;23;20295;-80
2021/06/09 08:22:54;;;;;;;;;;;19.40;99.90;;;;;;6136833;23;19966;-79
2021/06/09 08:25:24;;;;;;;;;;;19.50;99.90;;;;;;6135435;23;19928;-79
2021/06/09 08:27:56;;;;;;;;;;;19.50;99.90;;;;;;6137903;23;19924;-79
2021/06/09 08:30:24;;;;;;;;;;;19.60;99.90;;;;;;6160891;23;19958;-79
2021/06/09 08:32:57;;;;;;;;;;;19.70;99.90;;;;;;6138034;23;19920;-79
2021/06/09 08:35:29;;;;;;;;;;;19.80;99.90;;;;;;6162860;23;19924;-79
2021/06/09 08:37:57;;;;;;;;;;;19.90;99.90;;;;;;6138432;23;19924;-78
2021/06/09 08:40:31;;;;;;;;;;;20.00;99.90;;;;;;6172134;23;19921;-81
2021/06/09 08:42:59;;;;;;;;;;;20.10;99.90;;;;;;6146975;23;19920;-81
2021/06/09 08:45:30;;;;;;;;;;;20.10;99.90;;;;;;6147602;23;19936;-81
2021/06/09 08:47:58;;;;;;;;;;;20.20;99.90;;;;;;6148395;23;19974;-81
2021/06/09 08:50:37;;;;;;;;;;;20.30;99.90;;;;;;6149793;23;19930;-81
2021/06/09 08:53:07;;;;;;;;;;;20.40;99.90;;;;;;6124631;23;19927;-80
2021/06/09 08:55:39;;;;;;;;;;;20.50;99.90;;;;;;6148781;23;19920;-81
2021/06/09 08:58:12;;;;;;;;;;;20.60;99.90;;;;;;6149211;23;20337;-81
2021/06/09 09:01:44;;;;;;;;;;;20.70;99.90;;;;;;6180687;23;19971;-80
2021/06/09 09:04:24;;;;;;;;;;;20.80;99.90;;;;;;6152741;23;19944;-81
2021/06/09 09:07:05;;;;;;;;;;;20.80;99.90;;;;;;6176205;23;19951;-80
2021/06/09 09:09:38;;;;;;;;;;;20.80;99.90;;;;;;6128941;23;19920;-81
2021/06/09 09:12:34;;;;;;;;;;;20.90;99.90;;;;;;6182218;23;19922;-81
2021/06/09 09:15:38;;;;;;;;;;;20.90;99.90;;;;;;6169127;23;19943;-81
2021/06/09 10:26:40;;;;;;;;;;;23.00;99.90;;;;;;6242216;23;19934;-81
2021/06/09 11:46:18;;;;;;;;;;;25.00;99.90;;;;;;6274577;22;19926;-79
2021/06/09 11:48:53;;;;;;;;;;;24.70;99.90;;;;;;6211112;23;19919;-80
2021/06/09 11:51:19;;;;;;;;;;;24.50;99.90;;;;;;6195113;23;19927;-79
2021/06/09 11:53:48;;;;;;;;;;;24.30;99.90;;;;;;6198411;23;19926;-79
2021/06/09 11:56:18;;;;;;;;;;;23.90;99.90;;;;;;6223390;23;19942;-79
2021/06/09 11:58:52;;;;;;;;;;;23.60;99.90;;;;;;6199531;23;19923;-80
2021/06/09 12:01:25;;;;;;;;;;;23.20;99.90;;;;;;6195897;23;20264;-79
2021/06/09 12:04:08;;;;;;;;;;;22.90;99.90;;;;;;6194108;23;19919;-79
2021/06/09 12:06:40;;;;;;;;;;;22.50;99.90;;;;;;6193661;23;19989;-79
2021/06/09 12:09:08;;;;;;;;;;;22.30;99.90;;;;;;6193334;23;19926;-79
2021/06/09 12:11:36;;;;;;;;;;;21.90;99.90;;;;;;6217470;23;19969;-79
2021/06/09 12:14:33;;;;;;;;;;;21.60;99.90;;;;;;6192816;23;19920;-79
2021/06/09 12:17:09;;;;;;;;;;;21.40;99.90;;;;;;6195969;23;20170;-79
2021/06/09 12:19:44;;;;;;;;;;;21.10;99.90;;;;;;6193235;23;19919;-79
2021/06/09 12:22:21;;;;;;;;;;;20.90;99.90;;;;;;6193306;23;19995;-80
2021/06/09 12:24:54;;;;;;;;;;;20.80;99.90;;;;;;6192893;23;19965;-79
2021/06/09 12:27:22;;;;;;;;;;;20.70;99.90;;;;;;6193055;23;19927;-80
2021/06/09 12:29:50;;;;;;;;;;;20.60;99.90;;;;;;6192980;23;20015;-79
2021/06/09 12:32:26;;;;;;;;;;;20.60;99.90;;;;;;6193341;23;19923;-80
2021/06/09 12:34:56;;;;;;;;;;;20.50;99.90;;;;;;6193455;23;19920;-79
2021/06/09 12:37:29;;;;;;;;;;;20.40;99.90;;;;;;6193981;23;19924;-79
2021/06/09 12:40:08;;;;;;;;;;;20.40;99.90;;;;;;6195669;23;19977;-80
2021/06/09 12:42:46;;;;;;;;;;;20.40;99.90;;;;;;6196465;22;19939;-80
2021/06/09 12:45:18;;;;;;;;;;;20.30;99.90;;;;;;6198323;23;19939;-80
2021/06/09 12:47:48;;;;;;;;;;;20.20;99.90;;;;;;6199087;23;19947;-81
2021/06/09 12:50:24;;;;;;;;;;;20.10;99.90;;;;;;6200979;23;19927;-80
2021/06/09 12:52:58;;;;;;;;;;;20.10;99.90;;;;;;6198871;23;19926;-80
2021/06/09 12:55:29;;;;;;;;;;;20.00;99.90;;;;;;6202032;23;19930;-79
2021/06/09 12:58:02;;;;;;;;;;;20.00;99.90;;;;;;6197181;23;19923;-79
2021/06/09 13:00:40;;;;;;;;;;;19.90;99.90;;;;;;6194943;23;19924;-79
2021/06/09 13:03:12;;;;;;;;;;;19.90;99.90;;;;;;6193378;23;20003;-78
2021/06/09 13:05:40;;;;;;;;;;;19.90;99.90;;;;;;6192587;23;20356;-78
2021/06/09 13:08:12;;;;;;;;;;;19.90;99.90;;;;;;6192313;23;19919;-78
2021/06/09 13:10:41;;;;;;;;;;;19.80;99.90;;;;;;6194083;23;19935;-79
2021/06/09 13:13:18;;;;;;;;;;;19.70;99.90;;;;;;6194026;23;19924;-79
2021/06/09 13:15:55;;;;;;;;;;;19.60;99.90;;;;;;6194930;23;19919;-79
2021/06/09 13:18:39;;;;;;;;;;;19.40;99.90;;;;;;6193360;23;19958;-79
2021/06/09 13:21:10;;;;;;;;;;;19.40;99.90;;;;;;6191946;23;20402;-79
2021/06/09 13:23:38;;;;;;;;;;;19.30;99.90;;;;;;6194068;23;19920;-79
2021/06/09 13:26:09;;;;;;;;;;;19.20;99.90;;;;;;6194949;23;20480;-80
2021/06/09 13:28:41;;;;;;;;;;;19.20;99.90;;;;;;6197184;23;19919;-79
2021/06/09 13:31:09;;;;;;;;;;;19.30;99.90;;;;;;6195435;23;19952;-79
2021/06/09 13:33:37;;;;;;;;;;;19.40;99.90;;;;;;6199023;23;19920;-79
2021/06/09 13:36:10;;;;;;;;;;;19.40;99.90;;;;;;6199430;23;19926;-79
2021/06/09 13:38:41;;;;;;;;;;;19.40;99.90;;;;;;6223161;23;19919;-79
2021/06/09 13:41:09;;;;;;;;;;;19.40;99.90;;;;;;6201440;23;19919;-79
2021/06/09 13:43:41;;;;;;;;;;;19.40;99.90;;;;;;6199492;23;20251;-79
2021/06/09 13:46:08;;;;;;;;;;;19.40;99.90;;;;;;6192658;23;19920;-80
2021/06/09 13:48:44;;;;;;;;;;;19.40;99.90;;;;;;6193125;23;19927;-80
2021/06/09 13:51:19;;;;;;;;;;;19.40;99.90;;;;;;6195317;23;19920;-80
2021/06/09 13:54:05;;;;;;;;;;;19.30;99.90;;;;;;6195866;23;19924;-79
2021/06/09 13:56:32;;;;;;;;;;;19.20;99.90;;;;;;6197840;23;19920;-80
2021/06/09 13:59:16;;;;;;;;;;;19.10;99.90;;;;;;6197372;23;19975;-80
2021/06/09 14:01:45;;;;;;;;;;;18.90;99.90;;;;;;6198053;23;19927;-80
2021/06/09 14:04:14;;;;;;;;;;;18.80;99.90;;;;;;6196533;23;20267;-80
2021/06/09 14:06:41;;;;;;;;;;;18.80;99.90;;;;;;6195174;23;19974;-80
2021/06/09 14:09:09;;;;;;;;;;;18.90;99.90;;;;;;6194898;23;19968;-80
2021/06/09 14:11:55;;;;;;;;;;;18.90;99.90;;;;;;6196041;23;19923;-80
2021/06/09 14:14:22;;;;;;;;;;;19.00;99.90;;;;;;6197084;23;19926;-80
2021/06/09 14:17:06;;;;;;;;;;;19.10;99.90;;;;;;6193914;23;19924;-79
2021/06/09 14:19:40;;;;;;;;;;;19.10;99.90;;;;;;6222374;23;19947;-80
2021/06/09 14:22:17;;;;;;;;;;;19.30;99.90;;;;;;6199099;23;19998;-80
2021/06/09 14:24:44;;;;;;;;;;;19.40;99.90;;;;;;6196377;23;20292;-79
2021/06/09 14:27:12;;;;;;;;;;;19.60;99.90;;;;;;6197251;23;19920;-79
2021/06/09 14:29:39;;;;;;;;;;;19.80;99.90;;;;;;6210042;23;19920;-80
2021/06/09 14:32:08;;;;;;;;;;;19.90;99.90;;;;;;6209867;23;19919;-79
2021/06/09 14:34:40;;;;;;;;;;;20.10;99.90;;;;;;6207281;23;19946;-79
2021/06/09 14:37:09;;;;;;;;;;;20.40;99.90;;;;;;6200749;23;19927;-79
2021/06/09 14:39:37;;;;;;;;;;;20.50;99.90;;;;;;6191936;23;19920;-79
2021/06/09 14:42:05;;;;;;;;;;;20.60;99.90;;;;;;6192810;23;20035;-79
2021/06/09 14:44:44;;;;;;;;;;;20.70;99.90;;;;;;6216494;23;19966;-79
2021/06/09 14:47:40;;;;;;;;;;;20.80;99.90;;;;;;6192043;23;19930;-79
2021/06/09 14:50:06;;;;;;;;;;;20.90;99.90;;;;;;6217625;23;19927;-79
2021/06/09 14:52:38;;;;;;;;;;;21.00;99.90;;;;;;6191557;23;19972;-79
2021/06/09 14:55:08;;;;;;;;;;;21.00;99.90;;;;;;6216436;23;20317;-79
2021/06/09 14:57:36;;;;;;;;;;;21.20;99.90;;;;;;6190664;23;19927;-79
2021/06/09 15:00:06;;;;;;;;;;;21.50;99.90;;;;;;6190262;23;19931;-78
2021/06/09 15:02:35;;;;;;;;;;;21.70;99.90;;;;;;6189082;23;19924;-78
2021/06/09 15:05:03;;;;;;;;;;;22.10;99.90;;;;;;6189545;23;19924;-79
2021/06/09 15:07:31;;;;;;;;;;;22.40;99.90;;;;;;6189563;23;20059;-79
2021/06/09 15:10:05;;;;;;;;;;;22.70;99.90;;;;;;6190616;23;19964;-79
2021/06/09 15:12:37;;;;;;;;;;;22.80;99.90;;;;;;6213749;23;19990;-79
2021/06/09 15:15:06;;;;;;;;;;;22.90;99.90;;;;;;6190065;23;19931;-79
2021/06/09 15:17:33;;;;;;;;;;;23.00;99.90;;;;;;6190639;23;19924;-78
2021/06/09 15:20:02;;;;;;;;;;;23.20;99.90;;;;;;6215676;23;19920;-79
2021/06/09 15:22:30;;;;;;;;;;;23.30;99.90;;;;;;6191555;23;19931;-79
2021/06/09 15:24:57;;;;;;;;;;;23.40;99.90;;;;;;6192335;23;19920;-78
2021/06/09 15:27:25;;;;;;;;;;;23.40;99.90;;;;;;6192561;23;19920;-79
2021/06/09 15:29:57;;;;;;;;;;;23.40;99.90;;;;;;6193412;23;19920;-79
2021/06/09 15:32:25;;;;;;;;;;;23.40;99.90;;;;;;6192820;23;20001;-79
2021/06/09 15:34:57;;;;;;;;;;;23.40;99.90;;;;;;6218866;23;19927;-79
2021/06/09 15:37:25;;;;;;;;;;;23.40;99.90;;;;;;6193964;23;19920;-79
2021/06/09 15:39:52;;;;;;;;;;;23.40;99.90;;;;;;6195039;23;20302;-79
2021/06/09 15:42:19;;;;;;;;;;;23.40;99.90;;;;;;6194600;23;19927;-79
2021/06/09 15:44:46;;;;;;;;;;;23.30;99.90;;;;;;6193165;23;19920;-79
2021/06/09 15:47:14;;;;;;;;;;;23.20;99.90;;;;;;6193351;23;20422;-79
2021/06/09 15:49:41;;;;;;;;;;;23.30;99.90;;;;;;6193565;23;19919;-79
2021/06/09 15:52:13;;;;;;;;;;;23.70;99.90;;;;;;6196333;23;20504;-79
2021/06/09 15:54:41;;;;;;;;;;;24.50;99.90;;;;;;6225151;23;19926;-79
2021/06/09 15:57:08;;;;;;;;;;;25.20;99.90;;;;;;6203343;23;19920;-80
2021/06/09 15:59:35;;;;;;;;;;;25.80;99.90;;;;;;6199774;23;19970;-81
2021/06/09 16:02:04;;;;;;;;;;;26.30;99.90;;;;;;6218706;23;19948;-81
2021/06/09 16:04:31;;;;;;;;;;;26.60;99.90;;;;;;6191878;23;19924;-81
2021/06/09 16:07:02;;;;;;;;;;;26.50;99.90;;;;;;6216765;23;20315;-80
2021/06/09 16:09:34;;;;;;;;;;;26.40;99.90;;;;;;6192774;23;19931;-81
2021/06/09 16:12:01;;;;;;;;;;;26.40;99.90;;;;;;6191813;23;19924;-81
2021/06/09 16:14:32;;;;;;;;;;;26.30;99.90;;;;;;6220360;23;19966;-80
2021/06/09 16:16:59;;;;;;;;;;;25.90;99.90;;;;;;6201724;23;19919;-79
2021/06/09 16:19:26;;;;;;;;;;;25.60;99.90;;;;;;6232309;23;19923;-79
2021/06/09 16:21:53;;;;;;;;;;;25.10;99.90;;;;;;6204798;23;19927;-79
2021/06/09 16:24:19;;;;;;;;;;;24.80;99.90;;;;;;6205815;23;20272;-79
2021/06/09 16:26:49;;;;;;;;;;;24.40;99.90;;;;;;6203797;23;19920;-79
2021/06/09 16:29:15;;;;;;;;;;;24.10;99.90;;;;;;6202416;23;19930;-79
2021/06/09 16:31:43;;;;;;;;;;;23.80;99.90;;;;;;6225366;23;19944;-80
2021/06/09 16:34:10;;;;;;;;;;;23.60;99.90;;;;;;6198633;23;20033;-79
2021/06/09 16:36:36;;;;;;;;;;;23.30;99.90;;;;;;6198982;23;19920;-79
2021/06/09 16:39:03;;;;;;;;;;;23.10;99.90;;;;;;6221854;23;19927;-78
2021/06/09 16:41:36;;;;;;;;;;;22.80;99.90;;;;;;6216496;23;19943;-79
2021/06/09 16:44:04;;;;;;;;;;;22.60;99.90;;;;;;6191217;23;19920;-79
2021/06/09 16:46:36;;;;;;;;;;;22.40;99.90;;;;;;6215578;23;19924;-79
2021/06/09 16:49:05;;;;;;;;;;;22.20;99.90;;;;;;6186913;23;19924;-79
2021/06/09 16:51:32;;;;;;;;;;;22.10;99.90;;;;;;6192933;23;19920;-79
2021/06/09 16:54:18;;;;;;;;;;;22.00;99.90;;;;;;6194338;23;19929;-80
2021/06/09 16:59:15;;;;;;;;;;;21.80;99.90;;;;;;6206499;23;19925;-80
2021/06/09 17:01:43;;;;;;;;;;;21.80;99.90;;;;;;6206341;23;20211;-80
2021/06/09 17:04:10;;;;;;;;;;;21.80;99.90;;;;;;6206223;23;19920;-80
2021/06/09 17:06:37;;;;;;;;;;;21.70;99.90;;;;;;6195354;23;19927;-80
2021/06/09 17:09:07;;;;;;;;;;;21.60;99.90;;;;;;6194133;23;19998;-80
2021/06/09 17:11:39;;;;;;;;;;;21.60;99.90;;;;;;6194842;23;19924;-79
2021/06/09 17:14:06;;;;;;;;;;;21.60;99.90;;;;;;6194199;23;19920;-76
2021/06/09 17:16:34;;;;;;;;;;;21.50;99.90;;;;;;6217898;23;19927;-79
2021/06/09 17:19:02;;;;;;;;;;;21.40;99.90;;;;;;6192620;23;19926;-80
2021/06/09 17:21:30;;;;;;;;;;;21.20;99.90;;;;;;6193011;23;20345;-79
2021/06/09 17:23:58;;;;;;;;;;;21.00;99.90;;;;;;6217860;23;19962;-80
2021/06/09 17:26:30;;;;;;;;;;;21.10;99.90;;;;;;6217971;23;19923;-79
2021/06/09 17:28:58;;;;;;;;;;;21.10;99.90;;;;;;6218070;23;19974;-79
2021/06/09 17:31:26;;;;;;;;;;;21.10;99.90;;;;;;6192879;23;20348;-80
2021/06/09 17:33:54;;;;;;;;;;;21.10;99.90;;;;;;6192620;23;20344;-79
2021/06/09 17:36:22;;;;;;;;;;;21.10;99.90;;;;;;6193142;23;19920;-80
2021/06/09 17:38:49;;;;;;;;;;;21.20;99.90;;;;;;6192713;23;19920;-80
2021/06/09 17:41:21;;;;;;;;;;;21.20;99.90;;;;;;6217613;23;20398;-80
2021/06/09 17:43:50;;;;;;;;;;;21.20;99.90;;;;;;6196458;23;19920;-79
2021/06/09 17:46:22;;;;;;;;;;;21.20;99.90;;;;;;6216625;23;19920;-79
2021/06/09 17:48:50;;;;;;;;;;;21.30;99.90;;;;;;6191559;23;19920;-80
2021/06/09 17:51:24;;;;;;;;;;;21.30;99.90;;;;;;6221955;23;19947;-79
2021/06/09 17:53:52;;;;;;;;;;;21.20;99.90;;;;;;6198401;23;19970;-79
2021/06/09 17:56:27;;;;;;;;;;;21.10;99.90;;;;;;6231444;22;19920;-78
2021/06/09 17:58:58;;;;;;;;;;;21.10;99.90;;;;;;6215852;23;19927;-79
2021/06/09 18:03:58;;;;;;;;;;;20.90;99.90;;;;;;6223116;23;19920;-79
2021/06/09 18:06:29;;;;;;;;;;;20.80;99.90;;;;;;6201448;23;19927;-79
2021/06/09 18:08:59;;;;;;;;;;;20.70;99.90;;;;;;6199833;23;19930;-79
2021/06/09 18:11:27;;;;;;;;;;;20.60;99.90;;;;;;6198938;23;19920;-79
2021/06/09 18:13:55;;;;;;;;;;;20.60;99.90;;;;;;6222254;23;19966;-79